sensor_id;sensor_type;location;lat;lon;timestamp;P1;durP1;ratioP1;P2;durP2;ratioP2
64966;SDS011;51710;38.732;-121.358;2023-05-01T00:01:49;4.63;;;1.25;;
64966;SDS011;51710;38.732;-121.358;2023-05-01T00:04:16;9.73;;;0.90;;
64966;SDS011;51710;38.732;-121.358;2023-05-01T00:06:43;2.90;;;0.82;;
64966;SDS011;51710;38.732;-121.358;2023-05-01T00:09:09;5.88;;;1.13;;
64966;SDS011;51710;38.732;-121.358;2023-05-01T00:11:36;3.13;;;0.85;;
64966;SDS011;51710;38.732;-121.358;2023-05-01T00:14:02;4.80;;;1.30;;
64966;SDS011;51710;38.732;-121.358;2023-05-01T00:16:28;3.85;;;1.00;;
64966;SDS011;51710;38.732;-121.358;2023-05-01T00:18:55;5.68;;;0.90;;
64966;SDS011;51710;38.732;-121.358;2023-05-01T00:21:21;4.95;;;0.90;;
64966;SDS011;51710;38.732;-121.358;2023-05-01T00:23:48;5.43;;;1.20;;
64966;SDS011;51710;38.732;-121.358;2023-05-01T00:26:14;2.25;;;0.60;;
64966;SDS011;51710;38.732;-121.358;2023-05-01T00:28:40;3.33;;;1.20;;
64966;SDS011;51710;38.732;-121.358;2023-05-01T00:31:07;2.83;;;0.90;;
64966;SDS011;51710;38.732;-121.358;2023-05-01T00:33:33;7.53;;;1.08;;
64966;SDS011;51710;38.732;-121.358;2023-05-01T00:35:59;2.33;;;0.80;;
64966;SDS011;51710;38.732;-121.358;2023-05-01T00:38:25;7.40;;;1.10;;
64966;SDS011;51710;38.732;-121.358;2023-05-01T00:40:52;5.20;;;1.00;;
64966;SDS011;51710;38.732;-121.358;2023-05-01T00:43:18;5.05;;;1.13;;
64966;SDS011;51710;38.732;-121.358;2023-05-01T00:45:45;4.68;;;1.17;;
64966;SDS011;51710;38.732;-121.358;2023-05-01T00:48:11;4.80;;;1.23;;
64966;SDS011;51710;38.732;-121.358;2023-05-01T00:50:38;8.70;;;1.23;;
64966;SDS011;51710;38.732;-121.358;2023-05-01T00:53:06;3.67;;;1.13;;
64966;SDS011;51710;38.732;-121.358;2023-05-01T00:55:32;2.67;;;0.90;;
64966;SDS011;51710;38.732;-121.358;2023-05-01T00:58:00;6.53;;;1.02;;
64966;SDS011;51710;38.732;-121.358;2023-05-01T01:00:27;5.28;;;1.27;;
64966;SDS011;51710;38.732;-121.358;2023-05-01T01:02:53;6.57;;;1.90;;
64966;SDS011;51710;38.732;-121.358;2023-05-01T01:05:20;7.68;;;1.65;;
64966;SDS011;51710;38.732;-121.358;2023-05-01T01:07:58;9.48;;;2.00;;
64966;SDS011;51710;38.732;-121.358;2023-05-01T01:10:51;8.60;;;1.90;;
64966;SDS011;51710;38.732;-121.358;2023-05-01T01:13:38;12.43;;;1.85;;
64966;SDS011;51710;38.732;-121.358;2023-05-01T01:16:17;9.43;;;1.45;;
64966;SDS011;51710;38.732;-121.358;2023-05-01T01:18:47;8.13;;;1.90;;
64966;SDS011;51710;38.732;-121.358;2023-05-01T01:21:26;12.85;;;2.20;;
64966;SDS011;51710;38.732;-121.358;2023-05-01T01:24:11;8.13;;;1.85;;
64966;SDS011;51710;38.732;-121.358;2023-05-01T01:32:08;12.93;;;2.45;;
64966;SDS011;51710;38.732;-121.358;2023-05-01T01:34:54;13.35;;;1.98;;
64966;SDS011;51710;38.732;-121.358;2023-05-01T01:40:12;8.90;;;2.28;;
64966;SDS011;51710;38.732;-121.358;2023-05-01T01:43:23;10.63;;;1.90;;
64966;SDS011;51710;38.732;-121.358;2023-05-01T01:45:36;7.85;;;2.40;;
64966;SDS011;51710;38.732;-121.358;2023-05-01T01:48:08;8.45;;;2.40;;
64966;SDS011;51710;38.732;-121.358;2023-05-01T01:50:39;10.15;;;2.28;;
64966;SDS011;51710;38.732;-121.358;2023-05-01T01:53:07;11.25;;;2.40;;
64966;SDS011;51710;38.732;-121.358;2023-05-01T01:55:36;13.65;;;2.97;;
64966;SDS011;51710;38.732;-121.358;2023-05-01T01:58:04;11.38;;;2.05;;
64966;SDS011;51710;38.732;-121.358;2023-05-01T02:00:34;11.88;;;2.00;;
64966;SDS011;51710;38.732;-121.358;2023-05-01T02:03:01;10.95;;;1.98;;
64966;SDS011;51710;38.732;-121.358;2023-05-01T02:05:28;13.27;;;2.38;;
64966;SDS011;51710;38.732;-121.358;2023-05-01T02:07:57;6.47;;;1.92;;
64966;SDS011;51710;38.732;-121.358;2023-05-01T02:10:24;15.35;;;2.30;;
64966;SDS011;51710;38.732;-121.358;2023-05-01T02:12:53;15.02;;;2.45;;
64966;SDS011;51710;38.732;-121.358;2023-05-01T02:15:22;11.23;;;2.47;;
64966;SDS011;51710;38.732;-121.358;2023-05-01T02:17:50;13.95;;;2.60;;
64966;SDS011;51710;38.732;-121.358;2023-05-01T02:20:17;10.75;;;2.38;;
64966;SDS011;51710;38.732;-121.358;2023-05-01T02:22:45;15.18;;;3.20;;
64966;SDS011;51710;38.732;-121.358;2023-05-01T02:25:12;13.98;;;2.35;;
64966;SDS011;51710;38.732;-121.358;2023-05-01T02:27:52;10.52;;;2.50;;
64966;SDS011;51710;38.732;-121.358;2023-05-01T02:30:24;9.23;;;2.33;;
64966;SDS011;51710;38.732;-121.358;2023-05-01T02:32:50;16.83;;;3.20;;
64966;SDS011;51710;38.732;-121.358;2023-05-01T02:35:17;13.68;;;2.70;;
64966;SDS011;51710;38.732;-121.358;2023-05-01T02:37:43;10.10;;;3.50;;
64966;SDS011;51710;38.732;-121.358;2023-05-01T02:40:13;10.57;;;2.60;;
64966;SDS011;51710;38.732;-121.358;2023-05-01T02:42:41;10.60;;;2.50;;
64966;SDS011;51710;38.732;-121.358;2023-05-01T02:45:09;13.95;;;3.05;;
64966;SDS011;51710;38.732;-121.358;2023-05-01T02:47:42;10.90;;;2.67;;
64966;SDS011;51710;38.732;-121.358;2023-05-01T02:50:10;12.15;;;3.15;;
64966;SDS011;51710;38.732;-121.358;2023-05-01T02:52:39;12.43;;;2.97;;
64966;SDS011;51710;38.732;-121.358;2023-05-01T02:55:07;15.45;;;2.65;;
64966;SDS011;51710;38.732;-121.358;2023-05-01T02:57:34;11.52;;;3.03;;
64966;SDS011;51710;38.732;-121.358;2023-05-01T03:00:00;12.88;;;2.83;;
64966;SDS011;51710;38.732;-121.358;2023-05-01T03:02:27;11.90;;;2.90;;
64966;SDS011;51710;38.732;-121.358;2023-05-01T03:04:53;13.15;;;2.80;;
64966;SDS011;51710;38.732;-121.358;2023-05-01T03:07:20;14.75;;;3.22;;
64966;SDS011;51710;38.732;-121.358;2023-05-01T03:09:47;13.00;;;2.90;;
64966;SDS011;51710;38.732;-121.358;2023-05-01T03:12:13;14.93;;;2.72;;
64966;SDS011;51710;38.732;-121.358;2023-05-01T03:14:39;12.57;;;2.90;;
64966;SDS011;51710;38.732;-121.358;2023-05-01T03:17:05;18.27;;;3.63;;
64966;SDS011;51710;38.732;-121.358;2023-05-01T03:19:32;23.92;;;4.30;;
64966;SDS011;51710;38.732;-121.358;2023-05-01T03:21:58;17.52;;;3.63;;
64966;SDS011;51710;38.732;-121.358;2023-05-01T03:24:24;15.23;;;3.22;;
64966;SDS011;51710;38.732;-121.358;2023-05-01T03:26:51;15.43;;;3.38;;
64966;SDS011;51710;38.732;-121.358;2023-05-01T03:29:17;15.70;;;3.00;;
64966;SDS011;51710;38.732;-121.358;2023-05-01T03:31:43;13.13;;;2.80;;
64966;SDS011;51710;38.732;-121.358;2023-05-01T03:34:09;15.15;;;2.85;;
64966;SDS011;51710;38.732;-121.358;2023-05-01T03:36:35;13.05;;;3.58;;
64966;SDS011;51710;38.732;-121.358;2023-05-01T03:39:02;16.05;;;3.10;;
64966;SDS011;51710;38.732;-121.358;2023-05-01T03:41:29;16.60;;;3.17;;
64966;SDS011;51710;38.732;-121.358;2023-05-01T03:43:55;9.13;;;2.88;;
64966;SDS011;51710;38.732;-121.358;2023-05-01T03:46:21;15.02;;;4.15;;
64966;SDS011;51710;38.732;-121.358;2023-05-01T03:48:48;14.75;;;2.65;;
64966;SDS011;51710;38.732;-121.358;2023-05-01T03:51:14;12.55;;;2.58;;
64966;SDS011;51710;38.732;-121.358;2023-05-01T03:53:41;12.82;;;3.38;;
64966;SDS011;51710;38.732;-121.358;2023-05-01T03:56:08;17.92;;;3.88;;
64966;SDS011;51710;38.732;-121.358;2023-05-01T03:58:34;10.23;;;2.67;;
64966;SDS011;51710;38.732;-121.358;2023-05-01T04:01:01;11.35;;;2.40;;
64966;SDS011;51710;38.732;-121.358;2023-05-01T04:03:28;13.20;;;3.40;;
64966;SDS011;51710;38.732;-121.358;2023-05-01T04:05:54;17.02;;;2.42;;
64966;SDS011;51710;38.732;-121.358;2023-05-01T04:08:20;16.13;;;3.20;;
64966;SDS011;51710;38.732;-121.358;2023-05-01T04:10:47;12.77;;;2.90;;
64966;SDS011;51710;38.732;-121.358;2023-05-01T04:13:13;14.65;;;3.17;;
64966;SDS011;51710;38.732;-121.358;2023-05-01T04:15:42;13.50;;;3.35;;
64966;SDS011;51710;38.732;-121.358;2023-05-01T04:18:10;12.88;;;2.90;;
64966;SDS011;51710;38.732;-121.358;2023-05-01T04:20:37;12.35;;;2.85;;
64966;SDS011;51710;38.732;-121.358;2023-05-01T04:23:04;11.57;;;2.67;;
64966;SDS011;51710;38.732;-121.358;2023-05-01T04:25:30;15.23;;;3.22;;
64966;SDS011;51710;38.732;-121.358;2023-05-01T04:27:57;12.82;;;2.60;;
64966;SDS011;51710;38.732;-121.358;2023-05-01T04:30:23;12.98;;;2.70;;
64966;SDS011;51710;38.732;-121.358;2023-05-01T04:32:49;13.07;;;3.08;;
64966;SDS011;51710;38.732;-121.358;2023-05-01T04:35:15;13.95;;;3.22;;
64966;SDS011;51710;38.732;-121.358;2023-05-01T04:37:41;15.93;;;2.88;;
64966;SDS011;51710;38.732;-121.358;2023-05-01T04:40:08;12.02;;;2.90;;
64966;SDS011;51710;38.732;-121.358;2023-05-01T04:42:34;17.38;;;3.17;;
64966;SDS011;51710;38.732;-121.358;2023-05-01T04:45:01;11.95;;;2.67;;
64966;SDS011;51710;38.732;-121.358;2023-05-01T04:47:28;16.70;;;2.92;;
64966;SDS011;51710;38.732;-121.358;2023-05-01T04:49:54;10.52;;;2.50;;
64966;SDS011;51710;38.732;-121.358;2023-05-01T04:52:21;15.60;;;3.30;;
64966;SDS011;51710;38.732;-121.358;2023-05-01T04:54:47;13.93;;;2.88;;
64966;SDS011;51710;38.732;-121.358;2023-05-01T04:57:13;11.90;;;2.67;;
64966;SDS011;51710;38.732;-121.358;2023-05-01T04:59:40;15.48;;;3.05;;
64966;SDS011;51710;38.732;-121.358;2023-05-01T05:02:07;17.33;;;2.85;;
64966;SDS011;51710;38.732;-121.358;2023-05-01T05:04:33;12.65;;;3.47;;
64966;SDS011;51710;38.732;-121.358;2023-05-01T05:06:59;11.65;;;2.17;;
64966;SDS011;51710;38.732;-121.358;2023-05-01T05:09:26;16.90;;;2.63;;
64966;SDS011;51710;38.732;-121.358;2023-05-01T05:11:52;13.35;;;2.22;;
64966;SDS011;51710;38.732;-121.358;2023-05-01T05:14:18;10.88;;;3.00;;
64966;SDS011;51710;38.732;-121.358;2023-05-01T05:16:44;15.32;;;2.97;;
64966;SDS011;51710;38.732;-121.358;2023-05-01T05:19:11;18.30;;;3.15;;
64966;SDS011;51710;38.732;-121.358;2023-05-01T05:21:37;12.88;;;2.90;;
64966;SDS011;51710;38.732;-121.358;2023-05-01T05:24:04;11.73;;;2.92;;
64966;SDS011;51710;38.732;-121.358;2023-05-01T05:26:30;9.63;;;2.50;;
64966;SDS011;51710;38.732;-121.358;2023-05-01T05:28:56;11.10;;;2.33;;
64966;SDS011;51710;38.732;-121.358;2023-05-01T05:31:23;14.82;;;3.13;;
64966;SDS011;51710;38.732;-121.358;2023-05-01T05:33:50;14.43;;;2.83;;
64966;SDS011;51710;38.732;-121.358;2023-05-01T05:36:16;13.98;;;2.17;;
64966;SDS011;51710;38.732;-121.358;2023-05-01T05:38:42;11.52;;;2.10;;
64966;SDS011;51710;38.732;-121.358;2023-05-01T05:41:08;13.07;;;3.03;;
64966;SDS011;51710;38.732;-121.358;2023-05-01T05:43:35;15.80;;;3.20;;
64966;SDS011;51710;38.732;-121.358;2023-05-01T05:46:01;12.88;;;3.28;;
64966;SDS011;51710;38.732;-121.358;2023-05-01T05:48:27;14.27;;;2.75;;
64966;SDS011;51710;38.732;-121.358;2023-05-01T05:50:54;8.02;;;2.05;;
64966;SDS011;51710;38.732;-121.358;2023-05-01T05:53:20;14.95;;;2.72;;
64966;SDS011;51710;38.732;-121.358;2023-05-01T05:55:47;10.65;;;3.13;;
64966;SDS011;51710;38.732;-121.358;2023-05-01T05:58:13;12.93;;;3.42;;
64966;SDS011;51710;38.732;-121.358;2023-05-01T06:00:49;14.90;;;2.65;;
64966;SDS011;51710;38.732;-121.358;2023-05-01T06:03:17;10.95;;;2.00;;
64966;SDS011;51710;38.732;-121.358;2023-05-01T06:05:43;14.23;;;2.10;;
64966;SDS011;51710;38.732;-121.358;2023-05-01T06:08:10;14.52;;;2.67;;
64966;SDS011;51710;38.732;-121.358;2023-05-01T06:10:38;12.15;;;2.65;;
64966;SDS011;51710;38.732;-121.358;2023-05-01T06:13:06;13.80;;;2.17;;
64966;SDS011;51710;38.732;-121.358;2023-05-01T06:15:33;8.40;;;2.10;;
64966;SDS011;51710;38.732;-121.358;2023-05-01T06:18:03;10.00;;;2.58;;
64966;SDS011;51710;38.732;-121.358;2023-05-01T06:20:30;13.40;;;2.35;;
64966;SDS011;51710;38.732;-121.358;2023-05-01T06:22:56;12.30;;;2.20;;
64966;SDS011;51710;38.732;-121.358;2023-05-01T06:25:23;12.13;;;2.90;;
64966;SDS011;51710;38.732;-121.358;2023-05-01T06:27:49;7.00;;;2.03;;
64966;SDS011;51710;38.732;-121.358;2023-05-01T06:30:16;11.48;;;2.28;;
64966;SDS011;51710;38.732;-121.358;2023-05-01T06:32:44;11.88;;;2.92;;
64966;SDS011;51710;38.732;-121.358;2023-05-01T06:35:11;15.68;;;2.60;;
64966;SDS011;51710;38.732;-121.358;2023-05-01T06:37:37;10.80;;;2.10;;
64966;SDS011;51710;38.732;-121.358;2023-05-01T06:40:04;12.68;;;2.30;;
64966;SDS011;51710;38.732;-121.358;2023-05-01T06:42:32;13.68;;;2.45;;
64966;SDS011;51710;38.732;-121.358;2023-05-01T06:44:58;11.60;;;2.60;;
64966;SDS011;51710;38.732;-121.358;2023-05-01T06:47:24;16.92;;;2.30;;
64966;SDS011;51710;38.732;-121.358;2023-05-01T06:49:53;8.60;;;2.38;;
64966;SDS011;51710;38.732;-121.358;2023-05-01T06:52:20;11.98;;;1.98;;
64966;SDS011;51710;38.732;-121.358;2023-05-01T06:54:46;12.60;;;1.98;;
64966;SDS011;51710;38.732;-121.358;2023-05-01T06:57:12;10.95;;;3.03;;
64966;SDS011;51710;38.732;-121.358;2023-05-01T06:59:38;10.57;;;2.10;;
64966;SDS011;51710;38.732;-121.358;2023-05-01T07:02:04;9.80;;;2.28;;
64966;SDS011;51710;38.732;-121.358;2023-05-01T07:04:31;8.75;;;2.10;;
64966;SDS011;51710;38.732;-121.358;2023-05-01T07:06:57;11.07;;;2.38;;
64966;SDS011;51710;38.732;-121.358;2023-05-01T07:09:24;12.52;;;2.55;;
64966;SDS011;51710;38.732;-121.358;2023-05-01T07:11:50;12.43;;;2.65;;
64966;SDS011;51710;38.732;-121.358;2023-05-01T07:14:16;8.35;;;1.58;;
64966;SDS011;51710;38.732;-121.358;2023-05-01T07:16:42;14.60;;;2.60;;
64966;SDS011;51710;38.732;-121.358;2023-05-01T07:19:09;7.90;;;2.10;;
64966;SDS011;51710;38.732;-121.358;2023-05-01T07:21:36;10.85;;;2.30;;
64966;SDS011;51710;38.732;-121.358;2023-05-01T07:24:02;12.55;;;2.60;;
64966;SDS011;51710;38.732;-121.358;2023-05-01T07:26:28;8.50;;;1.70;;
64966;SDS011;51710;38.732;-121.358;2023-05-01T07:28:55;10.48;;;2.17;;
64966;SDS011;51710;38.732;-121.358;2023-05-01T07:31:21;7.88;;;1.60;;
64966;SDS011;51710;38.732;-121.358;2023-05-01T07:33:47;13.35;;;2.03;;
64966;SDS011;51710;38.732;-121.358;2023-05-01T07:36:13;5.88;;;1.33;;
64966;SDS011;51710;38.732;-121.358;2023-05-01T07:38:40;7.72;;;1.55;;
64966;SDS011;51710;38.732;-121.358;2023-05-01T07:41:07;15.25;;;2.05;;
64966;SDS011;51710;38.732;-121.358;2023-05-01T07:43:33;10.43;;;2.40;;
64966;SDS011;51710;38.732;-121.358;2023-05-01T07:45:59;10.32;;;1.65;;
64966;SDS011;51710;38.732;-121.358;2023-05-01T07:48:26;7.20;;;2.00;;
64966;SDS011;51710;38.732;-121.358;2023-05-01T07:50:53;8.38;;;2.28;;
64966;SDS011;51710;38.732;-121.358;2023-05-01T07:53:21;6.65;;;1.73;;
64966;SDS011;51710;38.732;-121.358;2023-05-01T07:55:47;6.63;;;1.70;;
64966;SDS011;51710;38.732;-121.358;2023-05-01T07:58:14;12.02;;;2.00;;
64966;SDS011;51710;38.732;-121.358;2023-05-01T08:00:41;10.38;;;2.28;;
64966;SDS011;51710;38.732;-121.358;2023-05-01T08:03:09;8.02;;;1.50;;
64966;SDS011;51710;38.732;-121.358;2023-05-01T08:05:42;10.23;;;2.53;;
64966;SDS011;51710;38.732;-121.358;2023-05-01T08:08:09;8.40;;;2.05;;
64966;SDS011;51710;38.732;-121.358;2023-05-01T08:10:37;8.32;;;1.48;;
64966;SDS011;51710;38.732;-121.358;2023-05-01T08:13:03;12.98;;;2.03;;
64966;SDS011;51710;38.732;-121.358;2023-05-01T08:15:29;12.32;;;1.70;;
64966;SDS011;51710;38.732;-121.358;2023-05-01T08:17:56;6.82;;;1.45;;
64966;SDS011;51710;38.732;-121.358;2023-05-01T08:20:22;11.93;;;2.58;;
64966;SDS011;51710;38.732;-121.358;2023-05-01T08:22:48;10.50;;;2.20;;
64966;SDS011;51710;38.732;-121.358;2023-05-01T08:25:15;12.70;;;2.10;;
64966;SDS011;51710;38.732;-121.358;2023-05-01T08:27:41;6.10;;;1.90;;
64966;SDS011;51710;38.732;-121.358;2023-05-01T08:30:08;13.70;;;1.60;;
64966;SDS011;51710;38.732;-121.358;2023-05-01T08:32:34;10.10;;;1.75;;
64966;SDS011;51710;38.732;-121.358;2023-05-01T08:35:00;8.73;;;2.08;;
64966;SDS011;51710;38.732;-121.358;2023-05-01T08:37:26;4.10;;;1.70;;
64966;SDS011;51710;38.732;-121.358;2023-05-01T08:39:53;9.68;;;2.10;;
64966;SDS011;51710;38.732;-121.358;2023-05-01T08:42:19;7.38;;;1.55;;
64966;SDS011;51710;38.732;-121.358;2023-05-01T08:44:46;9.65;;;1.90;;
64966;SDS011;51710;38.732;-121.358;2023-05-01T08:47:15;14.35;;;2.72;;
64966;SDS011;51710;38.732;-121.358;2023-05-01T08:49:43;12.95;;;2.42;;
64966;SDS011;51710;38.732;-121.358;2023-05-01T08:52:11;11.55;;;2.25;;
64966;SDS011;51710;38.732;-121.358;2023-05-01T08:54:40;9.73;;;2.55;;
64966;SDS011;51710;38.732;-121.358;2023-05-01T08:57:08;11.15;;;1.70;;
64966;SDS011;51710;38.732;-121.358;2023-05-01T08:59:36;10.02;;;1.73;;
64966;SDS011;51710;38.732;-121.358;2023-05-01T09:02:06;8.80;;;2.15;;
64966;SDS011;51710;38.732;-121.358;2023-05-01T09:04:37;9.27;;;2.38;;
64966;SDS011;51710;38.732;-121.358;2023-05-01T09:07:05;15.77;;;3.08;;
64966;SDS011;51710;38.732;-121.358;2023-05-01T09:09:32;9.05;;;2.13;;
64966;SDS011;51710;38.732;-121.358;2023-05-01T09:11:59;10.15;;;1.90;;
64966;SDS011;51710;38.732;-121.358;2023-05-01T09:14:33;4.68;;;1.40;;
64966;SDS011;51710;38.732;-121.358;2023-05-01T09:16:59;8.35;;;1.73;;
64966;SDS011;51710;38.732;-121.358;2023-05-01T09:19:26;8.02;;;2.00;;
64966;SDS011;51710;38.732;-121.358;2023-05-01T09:21:52;9.18;;;2.13;;
64966;SDS011;51710;38.732;-121.358;2023-05-01T09:24:21;10.75;;;1.80;;
64966;SDS011;51710;38.732;-121.358;2023-05-01T09:26:50;10.20;;;1.60;;
64966;SDS011;51710;38.732;-121.358;2023-05-01T09:32:19;10.40;;;1.92;;
64966;SDS011;51710;38.732;-121.358;2023-05-01T09:34:52;10.93;;;2.25;;
64966;SDS011;51710;38.732;-121.358;2023-05-01T09:37:27;11.20;;;2.08;;
64966;SDS011;51710;38.732;-121.358;2023-05-01T09:40:07;11.93;;;1.83;;
64966;SDS011;51710;38.732;-121.358;2023-05-01T09:42:35;11.73;;;2.10;;
64966;SDS011;51710;38.732;-121.358;2023-05-01T09:45:04;7.85;;;2.10;;
64966;SDS011;51710;38.732;-121.358;2023-05-01T09:47:36;10.50;;;2.42;;
64966;SDS011;51710;38.732;-121.358;2023-05-01T09:50:02;10.70;;;2.05;;
64966;SDS011;51710;38.732;-121.358;2023-05-01T09:52:29;7.50;;;1.70;;
64966;SDS011;51710;38.732;-121.358;2023-05-01T09:55:14;10.05;;;2.10;;
64966;SDS011;51710;38.732;-121.358;2023-05-01T09:57:41;10.90;;;2.00;;
64966;SDS011;51710;38.732;-121.358;2023-05-01T10:00:08;10.90;;;2.33;;
64966;SDS011;51710;38.732;-121.358;2023-05-01T10:02:36;15.35;;;2.60;;
64966;SDS011;51710;38.732;-121.358;2023-05-01T10:05:04;8.27;;;2.20;;
64966;SDS011;51710;38.732;-121.358;2023-05-01T10:07:32;8.00;;;2.10;;
64966;SDS011;51710;38.732;-121.358;2023-05-01T10:10:13;8.43;;;2.20;;
64966;SDS011;51710;38.732;-121.358;2023-05-01T10:12:40;8.60;;;1.63;;
64966;SDS011;51710;38.732;-121.358;2023-05-01T10:15:07;10.07;;;1.40;;
64966;SDS011;51710;38.732;-121.358;2023-05-01T10:17:35;11.43;;;2.50;;
64966;SDS011;51710;38.732;-121.358;2023-05-01T10:20:02;12.90;;;2.33;;
64966;SDS011;51710;38.732;-121.358;2023-05-01T10:22:29;12.52;;;2.25;;
64966;SDS011;51710;38.732;-121.358;2023-05-01T10:24:56;6.97;;;1.55;;
64966;SDS011;51710;38.732;-121.358;2023-05-01T10:27:23;9.90;;;2.30;;
64966;SDS011;51710;38.732;-121.358;2023-05-01T10:29:51;10.52;;;2.33;;
64966;SDS011;51710;38.732;-121.358;2023-05-01T10:32:18;11.27;;;1.80;;
64966;SDS011;51710;38.732;-121.358;2023-05-01T10:34:55;6.43;;;1.20;;
64966;SDS011;51710;38.732;-121.358;2023-05-01T10:37:35;6.13;;;1.50;;
64966;SDS011;51710;38.732;-121.358;2023-05-01T10:43:12;8.27;;;1.75;;
64966;SDS011;51710;38.732;-121.358;2023-05-01T10:45:45;11.40;;;1.70;;
64966;SDS011;51710;38.732;-121.358;2023-05-01T10:48:57;10.75;;;1.70;;
64966;SDS011;51710;38.732;-121.358;2023-05-01T10:51:18;8.77;;;1.90;;
64966;SDS011;51710;38.732;-121.358;2023-05-01T10:53:47;6.88;;;1.77;;
64966;SDS011;51710;38.732;-121.358;2023-05-01T11:01:31;12.40;;;1.92;;
64966;SDS011;51710;38.732;-121.358;2023-05-01T11:03:58;6.18;;;1.98;;
64966;SDS011;51710;38.732;-121.358;2023-05-01T11:06:29;11.55;;;1.83;;
64966;SDS011;51710;38.732;-121.358;2023-05-01T11:08:56;11.48;;;1.63;;
64966;SDS011;51710;38.732;-121.358;2023-05-01T11:14:04;10.35;;;2.65;;
64966;SDS011;51710;38.732;-121.358;2023-05-01T11:21:46;10.07;;;2.22;;
64966;SDS011;51710;38.732;-121.358;2023-05-01T11:24:12;10.10;;;1.90;;
64966;SDS011;51710;38.732;-121.358;2023-05-01T11:26:39;8.88;;;1.67;;
64966;SDS011;51710;38.732;-121.358;2023-05-01T11:29:10;10.40;;;1.60;;
64966;SDS011;51710;38.732;-121.358;2023-05-01T11:31:39;10.40;;;2.28;;
64966;SDS011;51710;38.732;-121.358;2023-05-01T11:34:06;7.40;;;1.60;;
64966;SDS011;51710;38.732;-121.358;2023-05-01T11:36:46;8.57;;;1.92;;
64966;SDS011;51710;38.732;-121.358;2023-05-01T11:39:13;7.22;;;2.22;;
64966;SDS011;51710;38.732;-121.358;2023-05-01T11:41:44;8.63;;;1.98;;
64966;SDS011;51710;38.732;-121.358;2023-05-01T11:44:11;7.25;;;1.90;;
64966;SDS011;51710;38.732;-121.358;2023-05-01T11:46:42;8.63;;;2.05;;
64966;SDS011;51710;38.732;-121.358;2023-05-01T11:49:09;8.55;;;2.05;;
64966;SDS011;51710;38.732;-121.358;2023-05-01T11:51:36;9.82;;;2.10;;
64966;SDS011;51710;38.732;-121.358;2023-05-01T11:56:30;8.60;;;1.80;;
64966;SDS011;51710;38.732;-121.358;2023-05-01T11:58:58;9.30;;;1.65;;
64966;SDS011;51710;38.732;-121.358;2023-05-01T12:01:34;5.75;;;1.40;;
64966;SDS011;51710;38.732;-121.358;2023-05-01T12:04:02;6.43;;;1.33;;
64966;SDS011;51710;38.732;-121.358;2023-05-01T12:06:36;11.40;;;1.92;;
64966;SDS011;51710;38.732;-121.358;2023-05-01T12:09:10;5.95;;;2.05;;
64966;SDS011;51710;38.732;-121.358;2023-05-01T12:11:41;10.00;;;2.25;;
64966;SDS011;51710;38.732;-121.358;2023-05-01T12:14:08;12.88;;;1.83;;
64966;SDS011;51710;38.732;-121.358;2023-05-01T12:16:35;8.82;;;1.65;;
64966;SDS011;51710;38.732;-121.358;2023-05-01T12:19:04;5.70;;;1.63;;
64966;SDS011;51710;38.732;-121.358;2023-05-01T12:21:31;10.55;;;1.83;;
64966;SDS011;51710;38.732;-121.358;2023-05-01T12:24:08;8.63;;;1.73;;
64966;SDS011;51710;38.732;-121.358;2023-05-01T12:26:43;9.27;;;2.28;;
64966;SDS011;51710;38.732;-121.358;2023-05-01T12:29:10;7.85;;;1.67;;
64966;SDS011;51710;38.732;-121.358;2023-05-01T12:31:44;8.60;;;1.90;;
64966;SDS011;51710;38.732;-121.358;2023-05-01T12:34:12;11.93;;;1.85;;
64966;SDS011;51710;38.732;-121.358;2023-05-01T12:36:38;6.30;;;1.67;;
64966;SDS011;51710;38.732;-121.358;2023-05-01T12:39:11;7.25;;;1.60;;
64966;SDS011;51710;38.732;-121.358;2023-05-01T12:41:38;9.27;;;2.33;;
64966;SDS011;51710;38.732;-121.358;2023-05-01T12:44:24;6.53;;;1.77;;
64966;SDS011;51710;38.732;-121.358;2023-05-01T12:46:55;9.93;;;1.52;;
64966;SDS011;51710;38.732;-121.358;2023-05-01T12:49:25;5.85;;;1.40;;
64966;SDS011;51710;38.732;-121.358;2023-05-01T12:51:53;6.35;;;1.40;;
64966;SDS011;51710;38.732;-121.358;2023-05-01T12:54:27;8.05;;;1.40;;
64966;SDS011;51710;38.732;-121.358;2023-05-01T12:57:05;12.38;;;1.80;;
64966;SDS011;51710;38.732;-121.358;2023-05-01T12:59:37;14.27;;;1.90;;
64966;SDS011;51710;38.732;-121.358;2023-05-01T13:02:05;9.38;;;1.70;;
64966;SDS011;51710;38.732;-121.358;2023-05-01T13:04:37;8.93;;;2.15;;
64966;SDS011;51710;38.732;-121.358;2023-05-01T13:07:11;7.78;;;1.80;;
64966;SDS011;51710;38.732;-121.358;2023-05-01T13:09:39;9.27;;;1.75;;
64966;SDS011;51710;38.732;-121.358;2023-05-01T13:12:19;6.03;;;1.50;;
64966;SDS011;51710;38.732;-121.358;2023-05-01T13:14:46;8.20;;;1.50;;
64966;SDS011;51710;38.732;-121.358;2023-05-01T13:17:12;7.43;;;2.20;;
64966;SDS011;51710;38.732;-121.358;2023-05-01T13:20:02;8.90;;;2.22;;
64966;SDS011;51710;38.732;-121.358;2023-05-01T13:22:32;7.60;;;1.73;;
64966;SDS011;51710;38.732;-121.358;2023-05-01T13:25:18;10.70;;;2.45;;
64966;SDS011;51710;38.732;-121.358;2023-05-01T13:27:50;5.45;;;1.17;;
64966;SDS011;51710;38.732;-121.358;2023-05-01T13:30:18;9.50;;;1.92;;
64966;SDS011;51710;38.732;-121.358;2023-05-01T13:32:46;7.18;;;3.03;;
64966;SDS011;51710;38.732;-121.358;2023-05-01T13:35:22;5.40;;;1.40;;
64966;SDS011;51710;38.732;-121.358;2023-05-01T13:37:50;5.88;;;1.75;;
64966;SDS011;51710;38.732;-121.358;2023-05-01T13:40:18;7.28;;;2.50;;
64966;SDS011;51710;38.732;-121.358;2023-05-01T13:42:45;8.15;;;1.35;;
64966;SDS011;51710;38.732;-121.358;2023-05-01T13:45:13;6.97;;;1.60;;
64966;SDS011;51710;38.732;-121.358;2023-05-01T13:47:45;5.43;;;1.23;;
64966;SDS011;51710;38.732;-121.358;2023-05-01T13:50:13;7.40;;;1.55;;
64966;SDS011;51710;38.732;-121.358;2023-05-01T13:52:42;12.82;;;2.55;;
64966;SDS011;51710;38.732;-121.358;2023-05-01T13:55:09;8.38;;;1.65;;
64966;SDS011;51710;38.732;-121.358;2023-05-01T13:57:37;9.20;;;1.67;;
64966;SDS011;51710;38.732;-121.358;2023-05-01T14:00:06;5.72;;;1.50;;
64966;SDS011;51710;38.732;-121.358;2023-05-01T14:02:36;6.65;;;1.83;;
64966;SDS011;51710;38.732;-121.358;2023-05-01T14:05:09;9.25;;;1.67;;
64966;SDS011;51710;38.732;-121.358;2023-05-01T14:07:43;7.95;;;1.45;;
64966;SDS011;51710;38.732;-121.358;2023-05-01T14:10:13;6.90;;;1.73;;
64966;SDS011;51710;38.732;-121.358;2023-05-01T14:12:40;7.68;;;1.50;;
64966;SDS011;51710;38.732;-121.358;2023-05-01T14:15:07;7.57;;;1.50;;
64966;SDS011;51710;38.732;-121.358;2023-05-01T14:17:35;6.68;;;1.33;;
64966;SDS011;51710;38.732;-121.358;2023-05-01T14:20:03;8.32;;;1.70;;
64966;SDS011;51710;38.732;-121.358;2023-05-01T14:22:33;8.00;;;2.53;;
64966;SDS011;51710;38.732;-121.358;2023-05-01T14:25:20;7.20;;;1.42;;
64966;SDS011;51710;38.732;-121.358;2023-05-01T14:27:49;10.68;;;1.80;;
64966;SDS011;51710;38.732;-121.358;2023-05-01T14:32:52;6.20;;;1.50;;
64966;SDS011;51710;38.732;-121.358;2023-05-01T14:35:19;8.45;;;1.85;;
64966;SDS011;51710;38.732;-121.358;2023-05-01T14:37:47;6.30;;;1.60;;
64966;SDS011;51710;38.732;-121.358;2023-05-01T14:40:13;9.80;;;1.90;;
64966;SDS011;51710;38.732;-121.358;2023-05-01T14:42:42;7.30;;;1.20;;